• Join FlightAware (Why Join?)
  • Login
  • US Flag 
Rudolph Flight #1: Arrived! 
10:10PM EST


 

Airport Tracker/Info


-or-


 

Live Flight TrackerFlight Track Log ✈ SWA265 ✈ 01-May-2013 ✈ KBWI - KPWM

Flight Track Log - Related Links

Times and Time Zones

All times are in EDT time to prevent confusion due to time zone crossing. See the SWA265 flight status page for this flight to view local times or setup timezone preferences in your user account.

Time Position Orientation Groundspeed Altitude Reporting Facility
EDT Latitude Longitude Course Direction KTS MPH feet Rate Location/Type
03:52PM 39.0833 -76.5833 131° Southeast 226 260 5,400  Level Potomac TRACON
03:53PM 39.0500 -76.5167 123° Southeast 244 281 8,100 2,520 Climbing Potomac TRACON
03:55PM 39.1025 -76.3700 65° Northeast 289 333 12,200 2,640 Climbing Washington Center
03:56PM 39.1386 -76.2525 68° East 324 373 15,200 2,940 Climbing Washington Center
03:57PM 39.1978 -76.1139 61° Northeast 377 434 18,000 1,860 Climbing Washington Center
03:58PM 39.2711 -75.9992 50° Northeast 399 459 19,000 1,560 Climbing Washington Center
03:59PM 39.3422 -75.8867 51° Northeast 406 467 21,200 2,100 Climbing Washington Center
04:00PM 39.4175 -75.7689 50° Northeast 416 479 23,300 2,460 Climbing Washington Center
04:02PM 39.5758 -75.5219 50° Northeast 450 518 28,700 2,640 Climbing New York Center
04:03PM 39.6494 -75.4003 52° Northeast 440 506 31,400 2,520 Climbing New York Center
04:04PM 39.7267 -75.2947 46° Northeast 422 486 33,800 1,740 Climbing New York Center
04:05PM 39.7994 -75.1886 48° Northeast 403 464 35,000 600 Climbing New York Center
04:06PM 39.8747 -75.0717 50° Northeast 403 464 35,000  Level New York Center
04:07PM 39.9475 -74.9597 50° Northeast 408 470 35,000  Level New York Center
04:08PM 40.0197 -74.8611 46° Northeast 408 470 35,000  Level New York Center
04:09PM 40.0900 -74.7539 49° Northeast 394 453 35,000  Level New York Center
04:10PM 40.1711 -74.6336 49° Northeast 394 453 35,000  Level New York Center
04:11PM 40.2369 -74.5367 48° Northeast 394 453 35,000  Level New York Center
04:13PM 40.4119 -74.2717 49° Northeast 422 486 35,000  Level Boston Center
04:14PM 40.4867 -74.1619 48° Northeast 411 473 35,000  Level Boston Center
04:15PM 40.5569 -74.0489 51° Northeast 399 459 35,000  Level Boston Center
04:16PM 40.6314 -73.9469 46° Northeast 393 452 35,000  Level Boston Center
04:17PM 40.7036 -73.8364 49° Northeast 388 447 35,000  Level Boston Center
04:18PM 40.7758 -73.7281 49° Northeast 388 447 35,000  Level Boston Center
04:19PM 40.8439 -73.6117 52° Northeast 388 447 35,000  Level Boston Center
04:20PM 40.9158 -73.5031 49° Northeast 394 453 35,000  Level Boston Center
04:21PM 40.9856 -73.3914 50° Northeast 394 453 35,000  Level Boston Center
04:22PM 41.0592 -73.2881 47° Northeast 389 448 35,000  Level Boston Center
04:23PM 41.1289 -73.1786 50° Northeast 384 442 35,000  Level Boston Center
04:24PM 41.1919 -73.0581 55° Northeast 384 442 35,000  Level Boston Center
04:25PM 41.2511 -72.9342 58° Northeast 390 449 35,000  Level Boston Center
04:26PM 41.3183 -72.7939 57° Northeast 395 455 35,000  Level Boston Center
04:27PM 41.3811 -72.6808 53° Northeast 395 455 35,000 -540 Level Boston Center
04:28PM 41.4478 -72.5619 53° Northeast 395 455 34,000 -900 Descending Boston Center
04:29PM 41.5125 -72.4483 53° Northeast 390 449 33,200 -840 Descending Boston Center
04:30PM 41.5708 -72.3431 53° Northeast 384 442 32,400 -840 Descending Boston Center
04:31PM 41.6375 -72.2261 53° Northeast 389 448 31,600 -900 Descending Boston Center
04:32PM 41.7039 -72.1092 53° Northeast 389 448 30,700 -900 Descending Boston Center
04:33PM 41.7722 -71.9892 53° Northeast 394 453 29,900 -900 Descending Boston Center
04:34PM 41.8383 -71.8633 55° Northeast 394 453 29,000 -480 Descending Boston Center
04:35PM 41.9086 -71.7428 52° Northeast 400 460 29,000  Level Boston Center
04:36PM 41.9744 -71.6192 54° Northeast 400 460 29,000  Level Boston Center
04:37PM 42.0464 -71.4981 51° Northeast 406 467 29,000  Level Boston Center
04:38PM 42.1161 -71.3739 53° Northeast 412 474 29,000  Level Boston Center
04:39PM 42.1858 -71.2464 54° Northeast 412 474 29,000  Level Boston Center
04:40PM 42.2511 -71.1219 55° Northeast 417 480 29,000  Level Boston Center
04:41PM 42.3225 -70.9939 53° Northeast 417 480 29,000 -1,500 Level Boston Center
04:42PM 42.3894 -70.8631 55° Northeast 417 480 26,000 -2,520 Descending Boston Center
04:43PM 42.4775 -70.7539 42° Northeast 391 450 24,000 -1,500 Descending Boston Center
04:44PM 42.5828 -70.6917 24° Northeast 391 450 23,100 -900 Descending Boston Center
04:45PM 42.6822 -70.6411 20° North 401 461 22,200 -900 Descending Boston Center
04:46PM 42.7872 -70.5728 26° Northeast 406 467 21,300 -960 Descending Boston Center
04:47PM 42.8864 -70.5103 25° Northeast 406 467 20,300 -1,620 Descending Boston Center
04:48PM 42.9936 -70.4444 24° Northeast 387 445 18,100 -3,000 Descending Boston Center
04:49PM 43.0778 -70.3764 31° Northeast 376 433 14,400 -3,240 Descending Boston Center
04:50PM 43.1703 -70.3050 29° Northeast 385 443 11,700 -2,280 Descending Boston Center
04:51PM 43.2747 -70.3242 352° North 339 390 9,900 -1,440 Descending Boston Center
04:52PM 43.3464 -70.3531 344° North 316 364 8,900 -1,500 Descending Boston Center
04:53PM 43.4303 -70.3872 344° North 296 341 7,000 -1,500 Descending Boston Center
04:54PM 43.4994 -70.4078 348° North 282 325 5,900 -780 Descending Boston Center
04:55PM 43.5642 -70.4200 352° North 237 273 5,500 -960 Descending Boston Center
04:56PM 43.6061 -70.4300 350° North 186 214 4,000 -1,740 Descending Boston Center
04:57PM 43.6517 -70.4228 North 153 176 2,100 -1,620 Descending Boston Center
04:58PM 43.6508 -70.3711 91° East 106 122 800 4,440 Descending Boston Center
04:59PM 43.6542 -70.3222 85° East 116 133 11,000 5,100 Climbing Boston Center
05:00PM 43.6575 -70.2792 84° East 116 133 11,000  Level Boston Center
05:01PM 43.6631 -70.2358 80° East 116 133 11,000  Level Boston Center
05:02PM 43.6664 -70.1928 84° East 116 133 11,000  Level Boston Center
05:03PM 43.6697 -70.1581 82° East 116 133 11,000  Level Boston Center
05:05PM 43.6333 -70.3000 253° West  Level FlightAware Approximate
05:12PM 43.6456 -70.3086 253° West  Level Estimated
05:13PM 43.6456 -70.3086 253° West  Level Estimated